Sheng Jia 1 — XUGG7 — position and weather

sailwx.info

Track history (hours):
 
Tides and Currents Weather Stations Pressure Air Temp Water Temp Dewpoint Dewpoint Depression Visibility Wind Speed Wind Dir Waves Ship Positions

Sheng Jia 1

Last reported at 2014-Dec-05 15:16 UTC. Time now 2014-Dec-21 20:52 UTC.
Position N 37°43' E 122°27'.
Warning: this ship's position is 16 days out of date.

Length 73 m; draft 3.5 m.

Type: Cargo ship. MMSI: 515744000.

Date/timePositionNaut miles runAvg speedWind from/ knotsBaromVisibWave heightAir tempDewpointWater temp
2014-Dec-05 15:16N 37°43' E 122°27'5 5.9
2014-Dec-05 14:28N 37°39' E 122°31'4 4.9
2014-Dec-05 13:33N 37°36' E 122°35'16 0.9
2014-Dec-04 20:13N 37°22' E 122°42'0 0.0
2014-Dec-04 18:13N 37°22' E 122°42'0 0.0
2014-Dec-02 18:32N 37°22' E 122°42'13 6.0
2014-Dec-02 16:26N 37°34' E 122°37'8 8.8
2014-Dec-02 15:30N 37°39' E 122°29'46 4.6
2014-Dec-02 05:32N 36°56' E 122°49'9 9.4
2014-Dec-02 04:33N 36°52' E 122°38'10 9.4
2014-Dec-02 03:32N 36°48' E 122°28'0 0.3
2014-Dec-02 02:23N 36°47' E 122°28'0 0.1
2014-Dec-02 01:29N 36°47' E 122°28'0 0.0
2014-Dec-02 00:17N 36°47' E 122°28'0 0.0
2014-Dec-01 23:29N 36°47' E 122°28'0 0.0
2014-Dec-01 21:23N 36°47' E 122°28'0 0.0
2014-Dec-01 20:17N 36°47' E 122°28'0 0.0
2014-Dec-01 02:05N 36°47' E 122°28'0 0.0
2014-Dec-01 01:33N 36°47' E 122°28'0 0.0
2014-Dec-01 00:33N 36°47' E 122°28'0 0.0
2014-Nov-30 23:34N 36°47' E 122°28'0 0.0
2014-Nov-30 22:32N 36°47' E 122°28'0 0.1
2014-Nov-30 21:33N 36°47' E 122°28'0 0.0
2014-Nov-30 20:30N 36°47' E 122°28'0 0.0
2014-Nov-30 19:20N 36°47' E 122°28'0 0.0
2014-Nov-30 18:20N 36°47' E 122°28'0 0.0
2014-Nov-30 17:26N 36°47' E 122°28'0 0.0
2014-Nov-30 16:32N 36°47' E 122°28'0 0.0
2014-Nov-30 15:14N 36°47' E 122°28'0 0.1
2014-Nov-30 14:14N 36°47' E 122°28'0 0.0
2014-Nov-30 13:32N 36°47' E 122°28'0 0.0
2014-Nov-30 12:20N 36°47' E 122°28'0 0.0
2014-Nov-30 11:26N 36°47' E 122°28'0 0.0
2014-Nov-30 10:26N 36°47' E 122°28'0 0.0
2014-Nov-30 09:26N 36°47' E 122°28'0 0.0
2014-Nov-30 08:32N 36°47' E 122°28'0 0.0
2014-Nov-30 07:30N 36°47' E 122°28'0 0.0
2014-Nov-30 06:30N 36°47' E 122°28'0 0.0
2014-Nov-30 05:30N 36°47' E 122°28'0 0.0
2014-Nov-30 04:24N 36°47' E 122°28'0 0.0
2014-Nov-30 02:30N 36°47' E 122°28'0 0.0
2014-Nov-30 01:30N 36°47' E 122°28'0 0.0
2014-Nov-30 00:18N 36°47' E 122°28'0 0.0
2014-Nov-29 23:24N 36°47' E 122°28'0 0.0
2014-Nov-29 22:30N 36°47' E 122°28'0 0.0
2014-Nov-29 21:30N 36°47' E 122°28'0 0.0
2014-Nov-29 20:30N 36°47' E 122°28'0 0.0
2014-Nov-29 19:30N 36°47' E 122°28'0 0.1
2014-Nov-29 18:30N 36°47' E 122°28'0 0.1
2014-Nov-29 17:30N 36°47' E 122°28'0 0.0
2014-Nov-29 16:30N 36°47' E 122°28'0 0.0
2014-Nov-29 15:30N 36°47' E 122°28'0 0.0
2014-Nov-29 14:33N 36°47' E 122°28'0 0.0
2014-Nov-29 13:33N 36°47' E 122°28'2 1.7
2014-Nov-29 12:33N 36°46' E 122°27'10 9.1
2014-Nov-29 11:26N 36°38' E 122°35'349 7.4
2014-Nov-27 12:33N 30°49' E 122°20'8 8.3
2014-Nov-27 11:33N 30°42' E 122°16'9 8.7
2014-Nov-27 10:33N 30°33' E 122°12'1110.7
2014-Nov-27 09:31N 30°27' E 122°01'1010.1
2014-Nov-27 08:33N 30°23' E 121°52'9 8.9
2014-Nov-27 07:31N 30°14' E 121°47'1310.4
2014-Nov-27 06:19N 30°02' E 121°48'4 0.2
2014-Nov-26 06:29N 29°59' E 121°45'3 1.1
2014-Nov-26 04:03N 30°01' E 121°46'0 0.1
2014-Nov-26 03:21N 30°01' E 121°46'0 0.1
2014-Nov-26 02:33N 30°01' E 121°46'0 0.0
2014-Nov-26 01:21N 30°01' E 121°46'0 0.1
2014-Nov-26 00:33N 30°01' E 121°46'0 0.0
2014-Nov-25 21:29N 30°01' E 121°46'0 0.0
2014-Nov-25 17:05N 30°01' E 121°46'0 0.0
2014-Nov-25 16:11N 30°01' E 121°46'  
Track history (hours):
 
Tides and Currents Weather Stations Pressure Air Temp Water Temp Dewpoint Dewpoint Depression Visibility Wind Speed Wind Dir Waves Ship Positions

Sheng Jia 1

Last reported at 2014-Dec-05 15:16 UTC. Time now 2014-Dec-21 20:52 UTC.
Position N 37°43' E 122°27'.
Warning: this ship's position is 16 days out of date.

Length 73 m; draft 3.5 m.

Type: Cargo ship. MMSI: 515744000.

Date/timePositionNaut miles runAvg speedWind from/ knotsBaromVisibWave heightAir tempDewpointWater temp
2014-Dec-05 15:16N 37°43' E 122°27'5 5.9
2014-Dec-05 14:28N 37°39' E 122°31'4 4.9
2014-Dec-05 13:33N 37°36' E 122°35'16 0.9
2014-Dec-04 20:13N 37°22' E 122°42'0 0.0
2014-Dec-04 18:13N 37°22' E 122°42'0 0.0
2014-Dec-02 18:32N 37°22' E 122°42'13 6.0
2014-Dec-02 16:26N 37°34' E 122°37'8 8.8
2014-Dec-02 15:30N 37°39' E 122°29'46 4.6
2014-Dec-02 05:32N 36°56' E 122°49'9 9.4
2014-Dec-02 04:33N 36°52' E 122°38'10 9.4
2014-Dec-02 03:32N 36°48' E 122°28'0 0.3
2014-Dec-02 02:23N 36°47' E 122°28'0 0.1
2014-Dec-02 01:29N 36°47' E 122°28'0 0.0
2014-Dec-02 00:17N 36°47' E 122°28'0 0.0
2014-Dec-01 23:29N 36°47' E 122°28'0 0.0
2014-Dec-01 21:23N 36°47' E 122°28'0 0.0
2014-Dec-01 20:17N 36°47' E 122°28'0 0.0
2014-Dec-01 02:05N 36°47' E 122°28'0 0.0
2014-Dec-01 01:33N 36°47' E 122°28'0 0.0
2014-Dec-01 00:33N 36°47' E 122°28'0 0.0
2014-Nov-30 23:34N 36°47' E 122°28'0 0.0
2014-Nov-30 22:32N 36°47' E 122°28'0 0.1
2014-Nov-30 21:33N 36°47' E 122°28'0 0.0
2014-Nov-30 20:30N 36°47' E 122°28'0 0.0
2014-Nov-30 19:20N 36°47' E 122°28'0 0.0
2014-Nov-30 18:20N 36°47' E 122°28'0 0.0
2014-Nov-30 17:26N 36°47' E 122°28'0 0.0
2014-Nov-30 16:32N 36°47' E 122°28'0 0.0
2014-Nov-30 15:14N 36°47' E 122°28'0 0.1
2014-Nov-30 14:14N 36°47' E 122°28'0 0.0
2014-Nov-30 13:32N 36°47' E 122°28'0 0.0
2014-Nov-30 12:20N 36°47' E 122°28'0 0.0
2014-Nov-30 11:26N 36°47' E 122°28'0 0.0
2014-Nov-30 10:26N 36°47' E 122°28'0 0.0
2014-Nov-30 09:26N 36°47' E 122°28'0 0.0
2014-Nov-30 08:32N 36°47' E 122°28'0 0.0
2014-Nov-30 07:30N 36°47' E 122°28'0 0.0
2014-Nov-30 06:30N 36°47' E 122°28'0 0.0
2014-Nov-30 05:30N 36°47' E 122°28'0 0.0
2014-Nov-30 04:24N 36°47' E 122°28'0 0.0
2014-Nov-30 02:30N 36°47' E 122°28'0 0.0
2014-Nov-30 01:30N 36°47' E 122°28'0 0.0
2014-Nov-30 00:18N 36°47' E 122°28'0 0.0
2014-Nov-29 23:24N 36°47' E 122°28'0 0.0
2014-Nov-29 22:30N 36°47' E 122°28'0 0.0
2014-Nov-29 21:30N 36°47' E 122°28'0 0.0
2014-Nov-29 20:30N 36°47' E 122°28'0 0.0
2014-Nov-29 19:30N 36°47' E 122°28'0 0.1
2014-Nov-29 18:30N 36°47' E 122°28'0 0.1
2014-Nov-29 17:30N 36°47' E 122°28'0 0.0
2014-Nov-29 16:30N 36°47' E 122°28'0 0.0
2014-Nov-29 15:30N 36°47' E 122°28'0 0.0
2014-Nov-29 14:33N 36°47' E 122°28'0 0.0
2014-Nov-29 13:33N 36°47' E 122°28'2 1.7
2014-Nov-29 12:33N 36°46' E 122°27'10 9.1
2014-Nov-29 11:26N 36°38' E 122°35'349 7.4
2014-Nov-27 12:33N 30°49' E 122°20'8 8.3
2014-Nov-27 11:33N 30°42' E 122°16'9 8.7
2014-Nov-27 10:33N 30°33' E 122°12'1110.7
2014-Nov-27 09:31N 30°27' E 122°01'1010.1
2014-Nov-27 08:33N 30°23' E 121°52'9 8.9
2014-Nov-27 07:31N 30°14' E 121°47'1310.4
2014-Nov-27 06:19N 30°02' E 121°48'4 0.2
2014-Nov-26 06:29N 29°59' E 121°45'3 1.1
2014-Nov-26 04:03N 30°01' E 121°46'0 0.1
2014-Nov-26 03:21N 30°01' E 121°46'0 0.1
2014-Nov-26 02:33N 30°01' E 121°46'0 0.0
2014-Nov-26 01:21N 30°01' E 121°46'0 0.1
2014-Nov-26 00:33N 30°01' E 121°46'0 0.0
2014-Nov-25 21:29N 30°01' E 121°46'0 0.0
2014-Nov-25 17:05N 30°01' E 121°46'0 0.0
2014-Nov-25 16:11N 30°01' E 121°46'  

Dump ship's entire track history